Terminal Aerodrome Forecast
Issued by NWS

Current Version | Previous Version | Graphics & Text | Print | Product List | Glossary On
Versions: 1 2 3 4 5 6 7 8 9 10 11 12 13 14 15 16 17 18
000
FTUS41 KPBZ 180531
TAFMGW
TAF
KMGW 180531Z 1806/1906 20006KT P6SM SKC
     FM181600 22010G15KT P6SM SCT200
     FM190000 22007KT P6SM BKN100=

USA.gov is the U.S. government's official web portal to all federal, state and local government web resources and services.